createdAt,value
2023-03-04T00:00:48.040Z,22.98
2023-03-04T00:05:49.850Z,23.50
2023-03-04T00:10:51.768Z,22.77
2023-03-04T00:15:53.855Z,25.35
2023-03-04T00:20:55.695Z,19.20
2023-03-04T00:25:57.479Z,23.25
2023-03-04T00:30:59.310Z,22.38
2023-03-04T00:36:01.724Z,19.42
2023-03-04T00:41:03.762Z,20.33
2023-03-04T00:46:05.657Z,20.45
2023-03-04T00:51:07.640Z,26.70
2023-03-04T00:56:09.460Z,20.85
2023-03-04T01:01:11.396Z,16.20
2023-03-04T01:06:13.580Z,19.83
2023-03-04T01:11:15.380Z,14.10
2023-03-04T01:16:17.205Z,21.85
2023-03-04T01:21:19.557Z,19.42
2023-03-04T01:26:21.507Z,25.88
2023-03-04T01:31:23.472Z,20.45
2023-03-04T01:36:25.379Z,27.63
2023-03-04T01:41:28.270Z,16.58
2023-03-04T01:46:31.523Z,22.20
2023-03-04T01:51:33.337Z,17.45
2023-03-04T01:56:38.503Z,18.48
2023-03-04T02:01:43.497Z,17.90
2023-03-04T02:06:46.521Z,22.90
2023-03-04T02:11:50.371Z,23.98
2023-03-04T02:16:52.604Z,17.17
2023-03-04T02:21:54.491Z,24.73
2023-03-04T02:26:56.355Z,13.98
2023-03-04T02:31:58.245Z,31.17
2023-03-04T02:37:01.837Z,19.70
2023-03-04T02:42:05.154Z,19.23
2023-03-04T02:47:09.935Z,15.52
2023-03-04T02:52:19.271Z,17.83
2023-03-04T02:57:21.182Z,14.00
2023-03-04T03:02:23.048Z,16.35
2023-03-04T03:07:24.849Z,21.10
2023-03-04T03:12:27.077Z,16.10
2023-03-04T03:17:29.303Z,23.50
2023-03-04T03:22:31.454Z,24.52
2023-03-04T03:27:33.295Z,23.52
2023-03-04T03:32:35.059Z,11.70
2023-03-04T03:37:37.005Z,22.42
2023-03-04T03:42:38.815Z,18.25
2023-03-04T03:47:40.758Z,18.08
2023-03-04T03:52:42.719Z,12.52
2023-03-04T03:57:44.538Z,17.02
2023-03-04T04:02:46.439Z,17.00
2023-03-04T04:07:48.340Z,14.65
2023-03-04T04:12:50.179Z,12.43
2023-03-04T04:17:52.036Z,23.02
2023-03-04T04:22:53.825Z,15.80
2023-03-04T04:27:55.580Z,18.70
2023-03-04T04:33:01.525Z,18.55
2023-03-04T04:38:03.621Z,19.33
2023-03-04T04:43:05.467Z,13.40
2023-03-04T04:48:07.263Z,14.02
2023-03-04T04:53:12.682Z,18.67
2023-03-04T04:58:14.475Z,20.55
2023-03-04T05:03:18.421Z,16.42
2023-03-04T05:08:20.493Z,12.18
2023-03-04T05:13:22.314Z,18.65
2023-03-04T05:18:26.099Z,16.40
2023-03-04T05:23:31.498Z,11.95
2023-03-04T05:28:34.417Z,15.65
2023-03-04T05:33:36.467Z,11.50
2023-03-04T05:38:38.432Z,13.07
2023-03-04T05:43:42.911Z,18.05
2023-03-04T05:48:45.378Z,14.80
2023-03-04T05:53:47.791Z,13.10
2023-03-04T05:58:49.866Z,15.23
2023-03-04T06:03:51.709Z,15.50
2023-03-04T06:08:53.478Z,25.98
2023-03-04T06:13:55.342Z,20.80
2023-03-04T06:18:57.424Z,25.85
2023-03-04T06:23:59.358Z,18.30
2023-03-04T06:29:01.184Z,14.88
2023-03-04T06:34:03.030Z,20.40
2023-03-04T06:39:07.253Z,15.00
2023-03-04T06:44:09.251Z,22.58
2023-03-04T06:49:11.094Z,15.43
2023-03-04T06:54:13.016Z,13.15
2023-03-04T06:59:14.995Z,21.50
2023-03-04T07:04:17.032Z,23.10
2023-03-04T07:09:19.285Z,19.02
2023-03-04T07:14:22.894Z,25.23
2023-03-04T07:19:25.925Z,22.58
2023-03-04T07:24:28.339Z,12.40
2023-03-04T07:29:30.296Z,19.65
2023-03-04T07:34:32.174Z,16.33
2023-03-04T07:39:33.952Z,16.38
2023-03-04T07:44:35.765Z,21.33
2023-03-04T07:49:37.803Z,10.63
2023-03-04T07:54:39.672Z,11.25
2023-03-04T07:59:41.750Z,17.83
2023-03-04T08:04:43.672Z,23.70
2023-03-04T08:09:45.501Z,17.75
2023-03-04T08:14:47.347Z,14.50
2023-03-04T08:19:49.189Z,11.45
2023-03-04T08:24:50.954Z,18.58
2023-03-04T08:29:52.885Z,17.42
2023-03-04T08:34:56.287Z,19.67
2023-03-04T08:39:58.083Z,13.73
2023-03-04T08:44:59.840Z,13.45
2023-03-04T08:50:01.642Z,12.02
2023-03-04T08:55:03.652Z,13.27
2023-03-04T09:00:06.241Z,9.98
2023-03-04T09:05:08.690Z,6.75
2023-03-04T09:10:11.226Z,9.27
2023-03-04T09:15:14.056Z,8.93
2023-03-04T09:20:16.155Z,11.50
2023-03-04T09:25:18.130Z,10.50
2023-03-04T09:30:20.288Z,10.95
2023-03-04T09:35:22.147Z,13.60
2023-03-04T09:40:28.922Z,14.02
2023-03-04T09:45:55.335Z,8.32
2023-03-04T09:51:09.224Z,10.63
2023-03-04T09:56:12.210Z,5.90
2023-03-04T10:01:29.808Z,9.50
2023-03-04T10:06:32.563Z,15.43
2023-03-04T10:11:45.269Z,10.68
2023-03-04T10:17:03.455Z,6.13
2023-03-04T10:22:20.968Z,9.23
2023-03-04T10:27:23.846Z,6.97
2023-03-04T10:32:25.617Z,5.63
2023-03-04T10:37:45.151Z,7.93
2023-03-04T10:42:49.914Z,6.78
2023-03-04T10:47:58.795Z,8.88
2023-03-04T10:53:00.573Z,8.95
2023-03-04T10:58:07.153Z,7.20
2023-03-04T11:03:31.099Z,10.60
2023-03-04T11:08:33.265Z,10.00
2023-03-04T11:13:35.325Z,5.70
2023-03-04T11:18:48.159Z,10.15
2023-03-04T11:24:04.027Z,9.57
2023-03-04T11:29:16.934Z,6.60
2023-03-04T11:34:27.401Z,5.60
2023-03-04T11:39:47.547Z,12.15
2023-03-04T11:44:49.700Z,5.57
2023-03-04T11:50:16.376Z,4.93
2023-03-04T11:55:43.944Z,14.10
2023-03-04T12:00:54.262Z,7.22
2023-03-04T12:06:17.607Z,5.15
2023-03-04T12:11:33.309Z,4.68
2023-03-04T12:16:50.025Z,5.38
2023-03-04T12:22:10.341Z,7.68
2023-03-04T12:27:26.466Z,2.83
2023-03-04T12:33:07.063Z,5.47
2023-03-04T12:38:35.791Z,6.20
2023-03-04T12:43:45.037Z,4.93
2023-03-04T12:49:02.502Z,7.65
2023-03-04T12:54:37.223Z,11.45
2023-03-04T12:59:46.572Z,7.60
2023-03-04T13:05:07.141Z,9.15
2023-03-04T13:10:13.537Z,6.85
2023-03-04T13:15:24.637Z,8.10
2023-03-04T13:20:42.707Z,10.38
2023-03-04T13:25:50.806Z,9.95
2023-03-04T13:30:53.316Z,12.05
2023-03-04T13:36:06.335Z,9.80
2023-03-04T13:41:24.900Z,14.20
2023-03-04T13:46:27.564Z,9.85
2023-03-04T13:51:43.062Z,7.20
2023-03-04T13:57:00.320Z,11.40
2023-03-04T14:02:19.991Z,9.30
2023-03-04T14:07:29.599Z,10.82
2023-03-04T14:12:34.878Z,12.18
2023-03-04T14:17:37.297Z,11.77
2023-03-04T14:22:40.975Z,8.80
2023-03-04T14:27:42.849Z,6.32
2023-03-04T14:32:47.493Z,6.65
2023-03-04T14:37:57.343Z,6.95
2023-03-04T14:43:18.709Z,11.85
2023-03-04T14:48:28.967Z,6.47
2023-03-04T14:53:32.594Z,8.15
2023-03-04T14:58:39.926Z,9.02
2023-03-04T15:03:53.297Z,9.50
2023-03-04T15:09:01.266Z,9.07
2023-03-04T15:14:03.085Z,9.63
2023-03-04T15:19:23.181Z,9.35
2023-03-04T15:24:24.940Z,9.43
2023-03-04T15:29:26.791Z,8.55
2023-03-04T15:34:28.569Z,7.38
2023-03-04T15:39:30.371Z,7.22
2023-03-04T15:44:32.422Z,6.00
2023-03-04T15:49:34.761Z,10.68
2023-03-04T15:54:36.698Z,7.13
2023-03-04T15:59:38.505Z,9.70
2023-03-04T16:04:40.333Z,8.65
2023-03-04T16:09:42.464Z,9.00
2023-03-04T16:14:47.143Z,8.25
2023-03-04T16:19:48.963Z,8.85
2023-03-04T16:24:51.711Z,8.18
2023-03-04T16:29:53.552Z,8.52
2023-03-04T16:34:55.444Z,10.38
2023-03-04T16:39:58.793Z,8.88
2023-03-04T16:45:00.798Z,9.77
2023-03-04T16:50:02.565Z,6.22
2023-03-04T16:55:04.701Z,5.65
2023-03-04T17:00:08.955Z,7.53
2023-03-04T17:05:18.569Z,8.50
2023-03-04T17:10:20.839Z,9.85
2023-03-04T17:15:22.746Z,8.05
2023-03-04T17:20:24.547Z,14.90
2023-03-04T17:25:26.315Z,5.40
2023-03-04T17:30:28.563Z,6.70
2023-03-04T17:35:30.506Z,9.35
2023-03-04T17:40:32.993Z,9.90
2023-03-04T17:45:34.818Z,12.45
2023-03-04T17:50:36.596Z,9.30
2023-03-04T17:55:38.392Z,12.30
2023-03-04T18:00:40.216Z,8.85
2023-03-04T18:05:42.048Z,8.68
2023-03-04T18:10:44.038Z,11.38
2023-03-04T18:15:46.577Z,8.95
2023-03-04T18:20:48.988Z,10.20
2023-03-04T18:25:51.126Z,6.57
2023-03-04T18:30:53.423Z,7.97
2023-03-04T18:36:00.284Z,9.95
2023-03-04T18:41:06.455Z,10.85
2023-03-04T18:46:22.135Z,6.95
2023-03-04T18:51:24.360Z,8.57
2023-03-04T18:56:38.304Z,10.25
2023-03-04T19:01:40.627Z,10.52
2023-03-04T19:06:42.576Z,3.15
2023-03-04T19:11:44.469Z,11.30
2023-03-04T19:16:46.376Z,11.20
2023-03-04T19:21:48.227Z,12.20
2023-03-04T19:26:50.019Z,10.40
2023-03-04T19:31:51.936Z,6.20
2023-03-04T19:36:53.744Z,12.77
2023-03-04T19:41:55.615Z,10.25
2023-03-04T19:46:58.345Z,14.75
2023-03-04T19:52:00.864Z,13.25
2023-03-04T19:57:02.730Z,11.30
2023-03-04T20:02:04.740Z,14.05
2023-03-04T20:07:06.504Z,15.10
2023-03-04T20:12:08.612Z,11.45
2023-03-04T20:17:10.526Z,6.20
2023-03-04T20:22:13.448Z,14.07
2023-03-04T20:27:15.813Z,11.95
2023-03-04T20:32:17.781Z,9.30
2023-03-04T20:37:20.269Z,8.98
2023-03-04T20:42:22.253Z,13.38
2023-03-04T20:47:24.253Z,10.57
2023-03-04T20:52:26.058Z,9.00
2023-03-04T20:57:30.669Z,10.65
2023-03-04T21:02:32.635Z,7.25
2023-03-04T21:07:34.544Z,8.60
2023-03-04T21:12:36.591Z,5.50
2023-03-04T21:17:38.569Z,11.52
2023-03-04T21:22:40.389Z,6.43
2023-03-04T21:27:43.361Z,6.45
2023-03-04T21:32:45.220Z,3.80
2023-03-04T21:37:47.099Z,6.35
2023-03-04T21:42:48.985Z,7.57
2023-03-04T21:47:50.861Z,5.75
2023-03-04T21:52:52.675Z,3.10
2023-03-04T21:57:54.567Z,4.07
2023-03-04T22:02:56.419Z,5.43
2023-03-04T22:07:58.429Z,5.95
2023-03-04T22:13:00.844Z,3.72
2023-03-04T22:18:04.273Z,7.53
2023-03-04T22:23:07.864Z,6.72
2023-03-04T22:28:11.192Z,9.82
2023-03-04T22:33:14.420Z,9.70
2023-03-04T22:38:16.290Z,4.20
2023-03-04T22:43:18.695Z,6.80
2023-03-04T22:48:23.736Z,7.05
2023-03-04T22:53:26.305Z,10.88
2023-03-04T22:58:28.547Z,6.60
2023-03-04T23:03:31.612Z,7.60
2023-03-04T23:08:38.316Z,9.57
2023-03-04T23:13:41.452Z,6.45
2023-03-04T23:18:46.715Z,5.82
2023-03-04T23:23:49.519Z,9.88
2023-03-04T23:28:51.944Z,6.78
2023-03-04T23:33:57.396Z,4.22
2023-03-04T23:39:00.132Z,4.40
2023-03-04T23:44:02.402Z,4.03
2023-03-04T23:49:10.734Z,6.50
2023-03-04T23:54:16.142Z,5.47
2023-03-04T23:59:18.142Z,14.25
